Terminal Aerodrome Forecast
Issued by NWS Mt. Holly, NJ

Home | Current Version | Previous Version | Text Only | Print | Product List | Glossary On
Versions: 1 2 3 4 5 6 7 8 9 10 11 12 13 14 15 16 17
000
FTUS41 KPHI 032326
TAFRDG
TAF
KRDG 032326Z 0400/0424 30005KT P6SM OVC045
     FM040800 VRB02KT P6SM BKN050
     FM041300 33005KT P6SM SCT040 SCT180=

USA.gov is the U.S. government's official web portal to all federal, state and local government web resources and services.